sensor_id;sensor_type;location;lat;lon;timestamp;pressure;altitude;pressure_sealevel;temperature;humidity
39177;BME280;24904;52.208;21.192;2022-12-18T00:01:38;101869.29;;;-3.61;73.40
39177;BME280;24904;52.208;21.192;2022-12-18T00:06:43;101878.23;;;-3.59;73.42
39177;BME280;24904;52.208;21.192;2022-12-18T00:11:48;101887.10;;;-3.53;73.25
39177;BME280;24904;52.208;21.192;2022-12-18T00:16:53;101891.55;;;-3.51;73.14
39177;BME280;24904;52.208;21.192;2022-12-18T00:21:58;101888.67;;;-3.47;73.37
39177;BME280;24904;52.208;21.192;2022-12-18T00:27:03;101898.17;;;-3.40;73.22
39177;BME280;24904;52.208;21.192;2022-12-18T00:32:08;101906.83;;;-3.29;73.40
39177;BME280;24904;52.208;21.192;2022-12-18T00:37:13;101912.55;;;-3.27;72.81
39177;BME280;24904;52.208;21.192;2022-12-18T00:42:18;101924.17;;;-3.29;72.61
39177;BME280;24904;52.208;21.192;2022-12-18T00:47:41;101927.48;;;-3.35;72.64
39177;BME280;24904;52.208;21.192;2022-12-18T00:52:47;101927.97;;;-3.31;72.99
39177;BME280;24904;52.208;21.192;2022-12-18T00:57:53;101928.30;;;-3.30;72.65
39177;BME280;24904;52.208;21.192;2022-12-18T01:02:58;101938.42;;;-3.29;72.73
39177;BME280;24904;52.208;21.192;2022-12-18T01:08:04;101940.73;;;-3.29;72.44
39177;BME280;24904;52.208;21.192;2022-12-18T01:13:09;101948.59;;;-3.27;72.71
39177;BME280;24904;52.208;21.192;2022-12-18T01:18:14;101951.68;;;-3.23;72.65
39177;BME280;24904;52.208;21.192;2022-12-18T01:23:19;101958.69;;;-3.22;72.40
39177;BME280;24904;52.208;21.192;2022-12-18T01:28:25;101964.08;;;-3.27;72.01
39177;BME280;24904;52.208;21.192;2022-12-18T01:40:40;101983.79;;;-3.35;72.43
39177;BME280;24904;52.208;21.192;2022-12-18T01:45:43;101991.58;;;-3.31;72.52
39177;BME280;24904;52.208;21.192;2022-12-18T01:50:46;102000.79;;;-3.32;72.44
39177;BME280;24904;52.208;21.192;2022-12-18T01:55:51;102006.40;;;-3.27;72.65
39177;BME280;24904;52.208;21.192;2022-12-18T02:00:56;102007.42;;;-3.21;72.62
39177;BME280;24904;52.208;21.192;2022-12-18T02:06:07;102013.31;;;-3.15;72.54
39177;BME280;24904;52.208;21.192;2022-12-18T02:11:21;102019.73;;;-3.07;72.59
39177;BME280;24904;52.208;21.192;2022-12-18T02:16:39;102022.43;;;-3.03;72.46
39177;BME280;24904;52.208;21.192;2022-12-18T02:21:51;102033.23;;;-3.03;72.46
39177;BME280;24904;52.208;21.192;2022-12-18T02:26:59;102043.86;;;-3.00;72.26
39177;BME280;24904;52.208;21.192;2022-12-18T02:32:09;102053.55;;;-3.03;72.37
39177;BME280;24904;52.208;21.192;2022-12-18T02:37:16;102051.54;;;-3.05;72.09
39177;BME280;24904;52.208;21.192;2022-12-18T02:42:21;102055.02;;;-3.06;72.27
39177;BME280;24904;52.208;21.192;2022-12-18T02:47:31;102064.97;;;-3.02;72.11
39177;BME280;24904;52.208;21.192;2022-12-18T02:52:41;102071.18;;;-3.03;72.06
39177;BME280;24904;52.208;21.192;2022-12-18T02:57:52;102077.00;;;-3.30;71.45
39177;BME280;24904;52.208;21.192;2022-12-18T03:03:06;102086.14;;;-3.41;71.83
39177;BME280;24904;52.208;21.192;2022-12-18T03:08:17;102095.05;;;-3.44;71.98
39177;BME280;24904;52.208;21.192;2022-12-18T03:13:26;102107.96;;;-3.53;71.98
39177;BME280;24904;52.208;21.192;2022-12-18T03:18:34;102117.50;;;-3.47;71.98
39177;BME280;24904;52.208;21.192;2022-12-18T03:25:03;102125.77;;;-3.47;71.47
39177;BME280;24904;52.208;21.192;2022-12-18T03:30:13;102114.85;;;-3.64;71.62
39177;BME280;24904;52.208;21.192;2022-12-18T03:35:23;102124.91;;;-3.68;71.67
39177;BME280;24904;52.208;21.192;2022-12-18T03:40:38;102136.23;;;-3.76;71.62
39177;BME280;24904;52.208;21.192;2022-12-18T03:45:50;102143.73;;;-3.88;71.75
39177;BME280;24904;52.208;21.192;2022-12-18T03:50:59;102164.70;;;-3.86;71.99
39177;BME280;24904;52.208;21.192;2022-12-18T03:56:07;102161.87;;;-3.85;71.70
39177;BME280;24904;52.208;21.192;2022-12-18T04:01:17;102160.45;;;-3.89;72.06
39177;BME280;24904;52.208;21.192;2022-12-18T04:06:24;102162.79;;;-3.75;72.24
39177;BME280;24904;52.208;21.192;2022-12-18T04:11:29;102173.84;;;-3.77;71.79
39177;BME280;24904;52.208;21.192;2022-12-18T04:16:36;102181.55;;;-3.91;71.50
39177;BME280;24904;52.208;21.192;2022-12-18T04:21:41;102178.80;;;-3.94;71.68
39177;BME280;24904;52.208;21.192;2022-12-18T04:27:05;102183.01;;;-3.85;71.82
39177;BME280;24904;52.208;21.192;2022-12-18T04:32:17;102199.69;;;-3.78;72.04
39177;BME280;24904;52.208;21.192;2022-12-18T04:37:22;102212.69;;;-3.68;71.84
39177;BME280;24904;52.208;21.192;2022-12-18T04:42:28;102220.09;;;-3.68;71.35
39177;BME280;24904;52.208;21.192;2022-12-18T04:47:33;102224.73;;;-3.66;71.63
39177;BME280;24904;52.208;21.192;2022-12-18T04:52:38;102236.91;;;-3.66;71.57
39177;BME280;24904;52.208;21.192;2022-12-18T04:57:43;102237.33;;;-3.61;71.59
39177;BME280;24904;52.208;21.192;2022-12-18T05:02:48;102241.98;;;-3.59;71.27
39177;BME280;24904;52.208;21.192;2022-12-18T05:07:53;102246.52;;;-3.63;71.10
39177;BME280;24904;52.208;21.192;2022-12-18T05:12:58;102255.15;;;-3.68;71.14
39177;BME280;24904;52.208;21.192;2022-12-18T05:18:03;102261.84;;;-3.72;70.81
39177;BME280;24904;52.208;21.192;2022-12-18T05:23:08;102272.65;;;-3.78;70.93
39177;BME280;24904;52.208;21.192;2022-12-18T05:28:13;102281.56;;;-3.80;71.18
39177;BME280;24904;52.208;21.192;2022-12-18T05:33:18;102291.88;;;-3.80;70.67
39177;BME280;24904;52.208;21.192;2022-12-18T05:38:24;102298.31;;;-3.84;70.60
39177;BME280;24904;52.208;21.192;2022-12-18T05:43:31;102307.03;;;-3.79;71.28
39177;BME280;24904;52.208;21.192;2022-12-18T05:48:38;102312.61;;;-3.75;71.22
39177;BME280;24904;52.208;21.192;2022-12-18T05:53:43;102315.23;;;-3.73;70.77
39177;BME280;24904;52.208;21.192;2022-12-18T05:58:50;102322.27;;;-3.70;70.78
39177;BME280;24904;52.208;21.192;2022-12-18T06:03:56;102327.77;;;-3.77;70.89
39177;BME280;24904;52.208;21.192;2022-12-18T06:09:01;102331.10;;;-3.82;70.86
39177;BME280;24904;52.208;21.192;2022-12-18T06:14:11;102344.38;;;-3.84;70.62
39177;BME280;24904;52.208;21.192;2022-12-18T06:19:17;102351.89;;;-3.80;70.85
39177;BME280;24904;52.208;21.192;2022-12-18T06:24:22;102356.74;;;-3.79;70.89
39177;BME280;24904;52.208;21.192;2022-12-18T06:29:27;102365.58;;;-3.82;70.69
39177;BME280;24904;52.208;21.192;2022-12-18T06:34:32;102375.80;;;-3.81;71.07
39177;BME280;24904;52.208;21.192;2022-12-18T06:39:37;102393.86;;;-3.76;70.70
39177;BME280;24904;52.208;21.192;2022-12-18T06:44:42;102404.23;;;-3.79;70.72
39177;BME280;24904;52.208;21.192;2022-12-18T06:49:47;102411.95;;;-3.76;70.93
39177;BME280;24904;52.208;21.192;2022-12-18T06:54:52;102418.14;;;-3.82;71.07
39177;BME280;24904;52.208;21.192;2022-12-18T06:59:57;102423.39;;;-3.88;71.02
39177;BME280;24904;52.208;21.192;2022-12-18T07:05:03;102429.95;;;-3.95;70.91
39177;BME280;24904;52.208;21.192;2022-12-18T07:10:09;102438.78;;;-3.97;70.97
39177;BME280;24904;52.208;21.192;2022-12-18T07:15:14;102449.19;;;-3.94;71.03
39177;BME280;24904;52.208;21.192;2022-12-18T07:20:19;102461.61;;;-3.93;71.23
39177;BME280;24904;52.208;21.192;2022-12-18T07:25:24;102470.27;;;-3.87;71.38
39177;BME280;24904;52.208;21.192;2022-12-18T07:30:29;102473.60;;;-3.85;71.43
39177;BME280;24904;52.208;21.192;2022-12-18T07:35:35;102482.55;;;-3.82;71.56
39177;BME280;24904;52.208;21.192;2022-12-18T07:40:40;102480.08;;;-3.76;71.49
39177;BME280;24904;52.208;21.192;2022-12-18T07:45:45;102477.03;;;-3.71;71.51
39177;BME280;24904;52.208;21.192;2022-12-18T07:50:53;102486.27;;;-3.68;71.36
39177;BME280;24904;52.208;21.192;2022-12-18T07:55:59;102497.30;;;-3.68;71.34
39177;BME280;24904;52.208;21.192;2022-12-18T08:01:07;102504.34;;;-3.66;71.35
39177;BME280;24904;52.208;21.192;2022-12-18T08:06:12;102516.00;;;-3.64;71.41
39177;BME280;24904;52.208;21.192;2022-12-18T08:11:17;102524.01;;;-3.63;71.38
39177;BME280;24904;52.208;21.192;2022-12-18T08:22:49;102539.92;;;-3.66;71.64
39177;BME280;24904;52.208;21.192;2022-12-18T08:27:54;102547.77;;;-3.68;71.68
39177;BME280;24904;52.208;21.192;2022-12-18T08:33:00;102549.41;;;-3.61;71.93
39177;BME280;24904;52.208;21.192;2022-12-18T08:38:05;102556.36;;;-3.50;71.88
39177;BME280;24904;52.208;21.192;2022-12-18T08:43:11;102564.85;;;-3.48;71.75
39177;BME280;24904;52.208;21.192;2022-12-18T08:48:33;102573.15;;;-3.47;71.88
39177;BME280;24904;52.208;21.192;2022-12-18T08:53:39;102583.48;;;-3.38;72.02
39177;BME280;24904;52.208;21.192;2022-12-18T08:58:44;102586.41;;;-3.33;72.08
39177;BME280;24904;52.208;21.192;2022-12-18T09:03:50;102582.89;;;-3.23;72.06
39177;BME280;24904;52.208;21.192;2022-12-18T09:08:56;102581.73;;;-3.12;72.01
39177;BME280;24904;52.208;21.192;2022-12-18T09:14:02;102592.02;;;-3.09;71.99
39177;BME280;24904;52.208;21.192;2022-12-18T09:19:08;102593.67;;;-3.04;72.24
39177;BME280;24904;52.208;21.192;2022-12-18T09:24:15;102596.92;;;-3.03;71.99
39177;BME280;24904;52.208;21.192;2022-12-18T09:29:21;102597.86;;;-2.97;72.01
39177;BME280;24904;52.208;21.192;2022-12-18T09:34:26;102598.69;;;-2.97;72.21
39177;BME280;24904;52.208;21.192;2022-12-18T09:39:31;102600.64;;;-2.89;72.04
39177;BME280;24904;52.208;21.192;2022-12-18T09:44:39;102607.00;;;-2.93;72.11
39177;BME280;24904;52.208;21.192;2022-12-18T09:49:47;102601.81;;;-2.90;72.13
39177;BME280;24904;52.208;21.192;2022-12-18T09:54:56;102611.80;;;-2.81;71.92
39177;BME280;24904;52.208;21.192;2022-12-18T10:00:11;102609.17;;;-2.70;72.38
39177;BME280;24904;52.208;21.192;2022-12-18T10:05:27;102612.35;;;-2.59;72.19
39177;BME280;24904;52.208;21.192;2022-12-18T10:10:40;102613.59;;;-2.54;71.58
39177;BME280;24904;52.208;21.192;2022-12-18T10:15:58;102611.88;;;-2.52;72.03
39177;BME280;24904;52.208;21.192;2022-12-18T10:33:40;102623.71;;;-2.24;71.57
39177;BME280;24904;52.208;21.192;2022-12-18T10:38:47;102634.33;;;-2.17;71.17
39177;BME280;24904;52.208;21.192;2022-12-18T10:44:12;102631.46;;;-2.04;71.17
39177;BME280;24904;52.208;21.192;2022-12-18T10:49:25;102627.80;;;-2.00;71.01
39177;BME280;24904;52.208;21.192;2022-12-18T11:01:15;102631.56;;;-1.90;70.57
39177;BME280;24904;52.208;21.192;2022-12-18T11:06:22;102635.80;;;-2.01;70.39
39177;BME280;24904;52.208;21.192;2022-12-18T11:11:28;102632.62;;;-2.06;70.30
39177;BME280;24904;52.208;21.192;2022-12-18T11:16:36;102642.58;;;-2.03;70.50
39177;BME280;24904;52.208;21.192;2022-12-18T11:21:43;102645.12;;;-2.29;70.29
39177;BME280;24904;52.208;21.192;2022-12-18T11:26:48;102652.48;;;-2.46;70.57
39177;BME280;24904;52.208;21.192;2022-12-18T11:32:09;102658.75;;;-2.62;70.59
39177;BME280;24904;52.208;21.192;2022-12-18T11:37:18;102655.71;;;-2.63;70.69
39177;BME280;24904;52.208;21.192;2022-12-18T11:42:27;102654.28;;;-2.58;71.08
39177;BME280;24904;52.208;21.192;2022-12-18T11:47:42;102648.79;;;-2.52;70.81
39177;BME280;24904;52.208;21.192;2022-12-18T11:52:49;102654.83;;;-2.55;70.95
39177;BME280;24904;52.208;21.192;2022-12-18T11:58:00;102655.33;;;-2.50;71.15
39177;BME280;24904;52.208;21.192;2022-12-18T12:03:24;102652.04;;;-2.35;71.01
39177;BME280;24904;52.208;21.192;2022-12-18T12:08:40;102659.95;;;-2.35;70.52
39177;BME280;24904;52.208;21.192;2022-12-18T12:13:57;102663.86;;;-2.54;70.80
39177;BME280;24904;52.208;21.192;2022-12-18T12:19:18;102666.68;;;-2.64;71.21
39177;BME280;24904;52.208;21.192;2022-12-18T12:24:34;102670.34;;;-2.52;71.57
39177;BME280;24904;52.208;21.192;2022-12-18T12:29:49;102674.97;;;-2.39;71.74
39177;BME280;24904;52.208;21.192;2022-12-18T12:35:07;102673.80;;;-2.27;71.31
39177;BME280;24904;52.208;21.192;2022-12-18T12:40:22;102673.15;;;-2.18;71.01
39177;BME280;24904;52.208;21.192;2022-12-18T12:45:33;102677.02;;;-2.12;71.07
39177;BME280;24904;52.208;21.192;2022-12-18T12:50:41;102691.41;;;-2.01;71.05
39177;BME280;24904;52.208;21.192;2022-12-18T12:55:46;102705.34;;;-1.97;70.49
39177;BME280;24904;52.208;21.192;2022-12-18T13:00:58;102713.66;;;-1.97;70.87
39177;BME280;24904;52.208;21.192;2022-12-18T13:06:11;102704.23;;;-1.94;70.43
39177;BME280;24904;52.208;21.192;2022-12-18T13:11:31;102717.65;;;-1.93;70.39
39177;BME280;24904;52.208;21.192;2022-12-18T13:22:43;102736.10;;;-1.97;70.32
39177;BME280;24904;52.208;21.192;2022-12-18T13:27:59;102738.25;;;-1.96;70.25
39177;BME280;24904;52.208;21.192;2022-12-18T13:39:11;102741.20;;;-1.93;70.58
39177;BME280;24904;52.208;21.192;2022-12-18T13:44:34;102749.16;;;-1.95;70.29
39177;BME280;24904;52.208;21.192;2022-12-18T13:49:41;102747.21;;;-1.91;70.41
39177;BME280;24904;52.208;21.192;2022-12-18T13:54:51;102753.96;;;-1.90;70.36
39177;BME280;24904;52.208;21.192;2022-12-18T13:59:59;102748.25;;;-1.90;70.22
39177;BME280;24904;52.208;21.192;2022-12-18T14:05:24;102748.94;;;-1.88;70.37
39177;BME280;24904;52.208;21.192;2022-12-18T14:10:30;102763.52;;;-1.86;70.47
39177;BME280;24904;52.208;21.192;2022-12-18T14:15:39;102773.45;;;-1.85;70.25
39177;BME280;24904;52.208;21.192;2022-12-18T14:20:48;102772.45;;;-1.87;70.53
39177;BME280;24904;52.208;21.192;2022-12-18T14:25:54;102775.94;;;-1.85;70.31
39177;BME280;24904;52.208;21.192;2022-12-18T14:30:59;102784.88;;;-1.84;70.49
39177;BME280;24904;52.208;21.192;2022-12-18T14:36:14;102783.85;;;-1.79;70.51
39177;BME280;24904;52.208;21.192;2022-12-18T14:41:21;102782.46;;;-1.76;70.54
39177;BME280;24904;52.208;21.192;2022-12-18T14:46:34;102783.16;;;-1.73;70.39
39177;BME280;24904;52.208;21.192;2022-12-18T14:51:41;102786.59;;;-1.77;70.18
39177;BME280;24904;52.208;21.192;2022-12-18T14:56:54;102784.09;;;-1.81;70.19
39177;BME280;24904;52.208;21.192;2022-12-18T15:02:03;102786.25;;;-1.81;70.35
39177;BME280;24904;52.208;21.192;2022-12-18T15:07:17;102797.50;;;-1.84;70.36
39177;BME280;24904;52.208;21.192;2022-12-18T15:12:28;102800.40;;;-1.84;70.28
39177;BME280;24904;52.208;21.192;2022-12-18T15:17:38;102805.52;;;-1.85;70.46
39177;BME280;24904;52.208;21.192;2022-12-18T15:22:43;102803.60;;;-1.84;70.21
39177;BME280;24904;52.208;21.192;2022-12-18T15:27:52;102812.49;;;-1.86;70.37
39177;BME280;24904;52.208;21.192;2022-12-18T15:33:24;102819.15;;;-1.85;70.21
39177;BME280;24904;52.208;21.192;2022-12-18T15:46:16;102828.83;;;-1.78;70.56
39177;BME280;24904;52.208;21.192;2022-12-18T15:51:23;102833.11;;;-1.75;70.36
39177;BME280;24904;52.208;21.192;2022-12-18T15:56:26;102833.38;;;-1.78;70.12
39177;BME280;24904;52.208;21.192;2022-12-18T16:01:49;102833.69;;;-1.82;70.08
39177;BME280;24904;52.208;21.192;2022-12-18T16:06:53;102841.30;;;-1.89;69.98
39177;BME280;24904;52.208;21.192;2022-12-18T16:11:56;102846.19;;;-1.94;69.95
39177;BME280;24904;52.208;21.192;2022-12-18T16:17:01;102848.52;;;-1.95;70.06
39177;BME280;24904;52.208;21.192;2022-12-18T16:22:05;102840.86;;;-2.01;70.13
39177;BME280;24904;52.208;21.192;2022-12-18T16:27:08;102838.10;;;-2.04;70.34
39177;BME280;24904;52.208;21.192;2022-12-18T16:32:14;102843.81;;;-2.08;70.18
39177;BME280;24904;52.208;21.192;2022-12-18T16:37:17;102848.72;;;-2.11;70.21
39177;BME280;24904;52.208;21.192;2022-12-18T16:42:21;102850.02;;;-2.12;70.12
39177;BME280;24904;52.208;21.192;2022-12-18T16:47:35;102850.67;;;-2.12;70.12
39177;BME280;24904;52.208;21.192;2022-12-18T16:52:38;102845.75;;;-2.15;70.12
39177;BME280;24904;52.208;21.192;2022-12-18T16:57:43;102855.94;;;-2.23;70.19
39177;BME280;24904;52.208;21.192;2022-12-18T17:02:49;102853.86;;;-2.22;70.01
39177;BME280;24904;52.208;21.192;2022-12-18T17:07:52;102858.94;;;-2.23;70.20
39177;BME280;24904;52.208;21.192;2022-12-18T17:12:55;102860.92;;;-2.27;69.97
39177;BME280;24904;52.208;21.192;2022-12-18T17:17:58;102869.37;;;-2.35;69.78
39177;BME280;24904;52.208;21.192;2022-12-18T17:23:01;102880.46;;;-2.40;70.12
39177;BME280;24904;52.208;21.192;2022-12-18T17:28:04;102887.88;;;-2.43;70.35
39177;BME280;24904;52.208;21.192;2022-12-18T17:33:10;102883.09;;;-2.45;70.16
39177;BME280;24904;52.208;21.192;2022-12-18T17:38:13;102877.80;;;-2.45;70.18
39177;BME280;24904;52.208;21.192;2022-12-18T17:43:17;102878.41;;;-2.49;70.18
39177;BME280;24904;52.208;21.192;2022-12-18T17:48:20;102878.64;;;-2.56;70.15
39177;BME280;24904;52.208;21.192;2022-12-18T17:53:23;102876.89;;;-2.57;70.13
39177;BME280;24904;52.208;21.192;2022-12-18T17:58:26;102880.98;;;-2.60;70.05
39177;BME280;24904;52.208;21.192;2022-12-18T18:07:12;102894.35;;;-2.60;70.27
39177;BME280;24904;52.208;21.192;2022-12-18T18:12:15;102915.55;;;-2.64;70.31
39177;BME280;24904;52.208;21.192;2022-12-18T18:17:38;102921.85;;;-2.66;70.08
39177;BME280;24904;52.208;21.192;2022-12-18T18:22:41;102912.16;;;-2.69;70.20
39177;BME280;24904;52.208;21.192;2022-12-18T18:27:44;102900.98;;;-2.72;70.41
39177;BME280;24904;52.208;21.192;2022-12-18T18:32:47;102891.33;;;-2.74;70.45
39177;BME280;24904;52.208;21.192;2022-12-18T18:37:50;102904.27;;;-2.76;70.06
39177;BME280;24904;52.208;21.192;2022-12-18T18:42:54;102914.79;;;-2.83;70.25
39177;BME280;24904;52.208;21.192;2022-12-18T18:47:57;102919.85;;;-2.85;70.42
39177;BME280;24904;52.208;21.192;2022-12-18T18:53:00;102921.52;;;-2.85;70.33
39177;BME280;24904;52.208;21.192;2022-12-18T18:58:03;102920.40;;;-2.88;70.31
39177;BME280;24904;52.208;21.192;2022-12-18T19:03:06;102912.31;;;-2.93;70.43
39177;BME280;24904;52.208;21.192;2022-12-18T19:08:09;102908.05;;;-2.98;70.50
39177;BME280;24904;52.208;21.192;2022-12-18T19:13:13;102898.69;;;-2.97;70.61
39177;BME280;24904;52.208;21.192;2022-12-18T19:18:28;102890.63;;;-2.97;70.32
39177;BME280;24904;52.208;21.192;2022-12-18T19:23:31;102899.07;;;-2.98;70.50
39177;BME280;24904;52.208;21.192;2022-12-18T19:28:35;102921.09;;;-2.94;70.33
39177;BME280;24904;52.208;21.192;2022-12-18T19:33:40;102913.23;;;-2.96;70.51
39177;BME280;24904;52.208;21.192;2022-12-18T19:38:43;102918.83;;;-3.04;70.41
39177;BME280;24904;52.208;21.192;2022-12-18T19:43:49;102921.71;;;-3.04;70.55
39177;BME280;24904;52.208;21.192;2022-12-18T19:48:52;102933.86;;;-2.96;70.80
39177;BME280;24904;52.208;21.192;2022-12-18T19:53:57;102937.50;;;-2.94;70.48
39177;BME280;24904;52.208;21.192;2022-12-18T19:59:01;102941.82;;;-2.96;70.55
39177;BME280;24904;52.208;21.192;2022-12-18T20:04:04;102936.21;;;-2.94;70.62
39177;BME280;24904;52.208;21.192;2022-12-18T20:09:09;102935.95;;;-2.97;70.36
39177;BME280;24904;52.208;21.192;2022-12-18T20:14:13;102927.63;;;-2.96;70.41
39177;BME280;24904;52.208;21.192;2022-12-18T20:19:17;102932.14;;;-2.96;70.28
39177;BME280;24904;52.208;21.192;2022-12-18T20:24:20;102933.91;;;-3.04;70.13
39177;BME280;24904;52.208;21.192;2022-12-18T20:29:23;102937.83;;;-3.12;70.16
39177;BME280;24904;52.208;21.192;2022-12-18T20:34:26;102935.39;;;-3.16;70.39
39177;BME280;24904;52.208;21.192;2022-12-18T20:39:29;102929.50;;;-3.18;70.28
39177;BME280;24904;52.208;21.192;2022-12-18T20:44:32;102930.65;;;-3.17;70.34
39177;BME280;24904;52.208;21.192;2022-12-18T20:49:35;102936.80;;;-3.20;70.31
39177;BME280;24904;52.208;21.192;2022-12-18T20:54:38;102922.17;;;-3.20;70.45
39177;BME280;24904;52.208;21.192;2022-12-18T20:59:41;102932.77;;;-3.22;70.69
39177;BME280;24904;52.208;21.192;2022-12-18T21:04:45;102948.46;;;-3.21;70.13
39177;BME280;24904;52.208;21.192;2022-12-18T21:09:48;102968.06;;;-3.22;70.32
39177;BME280;24904;52.208;21.192;2022-12-18T21:14:51;102969.09;;;-3.27;70.10
39177;BME280;24904;52.208;21.192;2022-12-18T21:19:54;102968.89;;;-3.33;70.34
39177;BME280;24904;52.208;21.192;2022-12-18T21:24:57;102964.25;;;-3.32;70.35
39177;BME280;24904;52.208;21.192;2022-12-18T21:30:00;102955.48;;;-3.34;70.54
39177;BME280;24904;52.208;21.192;2022-12-18T21:35:04;102954.06;;;-3.33;70.17
39177;BME280;24904;52.208;21.192;2022-12-18T21:40:10;102952.11;;;-3.38;70.19
39177;BME280;24904;52.208;21.192;2022-12-18T21:45:13;102944.46;;;-3.36;70.18
39177;BME280;24904;52.208;21.192;2022-12-18T21:50:16;102936.08;;;-3.37;70.23
39177;BME280;24904;52.208;21.192;2022-12-18T21:55:19;102931.20;;;-3.40;70.13
39177;BME280;24904;52.208;21.192;2022-12-18T22:00:23;102914.69;;;-3.40;70.36
39177;BME280;24904;52.208;21.192;2022-12-18T22:05:26;102903.77;;;-3.40;70.36
39177;BME280;24904;52.208;21.192;2022-12-18T22:10:29;102888.44;;;-3.40;70.19
39177;BME280;24904;52.208;21.192;2022-12-18T22:15:32;102880.39;;;-3.41;70.28
39177;BME280;24904;52.208;21.192;2022-12-18T22:20:35;102874.80;;;-3.43;70.36
39177;BME280;24904;52.208;21.192;2022-12-18T22:25:38;102861.23;;;-3.48;70.11
39177;BME280;24904;52.208;21.192;2022-12-18T22:30:41;102847.94;;;-3.47;70.01
39177;BME280;24904;52.208;21.192;2022-12-18T22:35:44;102842.92;;;-3.49;69.92
39177;BME280;24904;52.208;21.192;2022-12-18T22:40:47;102841.36;;;-3.56;70.01
39177;BME280;24904;52.208;21.192;2022-12-18T22:45:50;102843.19;;;-3.60;70.11
39177;BME280;24904;52.208;21.192;2022-12-18T22:50:53;102842.47;;;-3.63;70.01
39177;BME280;24904;52.208;21.192;2022-12-18T22:56:01;102839.45;;;-3.64;70.15
39177;BME280;24904;52.208;21.192;2022-12-18T23:01:04;102851.05;;;-3.72;69.95
39177;BME280;24904;52.208;21.192;2022-12-18T23:06:09;102850.11;;;-3.78;69.69
39177;BME280;24904;52.208;21.192;2022-12-18T23:11:12;102846.12;;;-3.80;69.87
39177;BME280;24904;52.208;21.192;2022-12-18T23:16:18;102849.86;;;-3.76;70.11
39177;BME280;24904;52.208;21.192;2022-12-18T23:21:22;102854.77;;;-3.77;70.01
39177;BME280;24904;52.208;21.192;2022-12-18T23:26:26;102850.63;;;-3.72;70.13
39177;BME280;24904;52.208;21.192;2022-12-18T23:31:31;102847.06;;;-3.74;70.12
39177;BME280;24904;52.208;21.192;2022-12-18T23:36:34;102836.61;;;-3.79;70.16
39177;BME280;24904;52.208;21.192;2022-12-18T23:41:37;102832.40;;;-3.78;70.13
39177;BME280;24904;52.208;21.192;2022-12-18T23:46:40;102836.60;;;-3.82;69.91
39177;BME280;24904;52.208;21.192;2022-12-18T23:51:43;102844.14;;;-3.90;69.93
39177;BME280;24904;52.208;21.192;2022-12-18T23:56:46;102845.77;;;-3.97;69.77
